sensor_id;sensor_type;location;lat;lon;timestamp;P1;durP1;ratioP1;P2;durP2;ratioP2
38611;SDS011;24368;52.156;20.788;2023-05-10T00:04:53;4.50;;;3.90;;
38611;SDS011;24368;52.156;20.788;2023-05-10T00:09:54;6.10;;;4.20;;
38611;SDS011;24368;52.156;20.788;2023-05-10T00:14:55;5.20;;;4.10;;
38611;SDS011;24368;52.156;20.788;2023-05-10T00:19:56;4.70;;;3.80;;
38611;SDS011;24368;52.156;20.788;2023-05-10T00:24:58;4.90;;;4.20;;
38611;SDS011;24368;52.156;20.788;2023-05-10T00:29:59;4.20;;;3.80;;
38611;SDS011;24368;52.156;20.788;2023-05-10T00:35:01;4.50;;;4.10;;
38611;SDS011;24368;52.156;20.788;2023-05-10T00:40:02;7.50;;;4.80;;
38611;SDS011;24368;52.156;20.788;2023-05-10T00:45:03;4.40;;;3.80;;
38611;SDS011;24368;52.156;20.788;2023-05-10T00:50:05;5.00;;;4.50;;
38611;SDS011;24368;52.156;20.788;2023-05-10T00:55:08;5.50;;;4.20;;
38611;SDS011;24368;52.156;20.788;2023-05-10T01:00:11;9.30;;;4.10;;
38611;SDS011;24368;52.156;20.788;2023-05-10T01:05:13;5.90;;;4.10;;
38611;SDS011;24368;52.156;20.788;2023-05-10T01:10:14;6.10;;;4.30;;
38611;SDS011;24368;52.156;20.788;2023-05-10T01:15:16;5.40;;;4.50;;
38611;SDS011;24368;52.156;20.788;2023-05-10T01:20:18;5.50;;;5.00;;
38611;SDS011;24368;52.156;20.788;2023-05-10T01:35:54;5.60;;;5.00;;
38611;SDS011;24368;52.156;20.788;2023-05-10T01:46:21;5.90;;;5.30;;
38611;SDS011;24368;52.156;20.788;2023-05-10T01:51:31;6.70;;;5.10;;
38611;SDS011;24368;52.156;20.788;2023-05-10T01:56:40;4.80;;;4.30;;
38611;SDS011;24368;52.156;20.788;2023-05-10T02:01:43;6.60;;;4.50;;
38611;SDS011;24368;52.156;20.788;2023-05-10T02:06:46;4.80;;;3.90;;
38611;SDS011;24368;52.156;20.788;2023-05-10T02:11:49;5.20;;;4.70;;
38611;SDS011;24368;52.156;20.788;2023-05-10T02:16:51;6.70;;;4.40;;
38611;SDS011;24368;52.156;20.788;2023-05-10T02:21:55;5.30;;;4.80;;
38611;SDS011;24368;52.156;20.788;2023-05-10T02:26:57;5.00;;;4.20;;
38611;SDS011;24368;52.156;20.788;2023-05-10T02:32:00;5.60;;;4.70;;
38611;SDS011;24368;52.156;20.788;2023-05-10T02:37:03;6.20;;;4.50;;
38611;SDS011;24368;52.156;20.788;2023-05-10T02:42:05;6.60;;;4.60;;
38611;SDS011;24368;52.156;20.788;2023-05-10T02:47:07;6.30;;;5.00;;
38611;SDS011;24368;52.156;20.788;2023-05-10T02:52:08;7.90;;;7.10;;
38611;SDS011;24368;52.156;20.788;2023-05-10T02:57:11;6.30;;;5.70;;
38611;SDS011;24368;52.156;20.788;2023-05-10T03:02:20;7.20;;;6.60;;
38611;SDS011;24368;52.156;20.788;2023-05-10T03:07:21;7.10;;;6.00;;
38611;SDS011;24368;52.156;20.788;2023-05-10T03:12:33;5.90;;;5.30;;
38611;SDS011;24368;52.156;20.788;2023-05-10T03:28:33;7.40;;;5.30;;
38611;SDS011;24368;52.156;20.788;2023-05-10T03:33:41;5.70;;;4.80;;
38611;SDS011;24368;52.156;20.788;2023-05-10T03:38:46;6.10;;;5.20;;
38611;SDS011;24368;52.156;20.788;2023-05-10T03:43:48;6.00;;;4.90;;
38611;SDS011;24368;52.156;20.788;2023-05-10T03:48:49;6.50;;;5.00;;
38611;SDS011;24368;52.156;20.788;2023-05-10T03:53:50;5.20;;;4.60;;
38611;SDS011;24368;52.156;20.788;2023-05-10T03:58:51;6.80;;;5.10;;
38611;SDS011;24368;52.156;20.788;2023-05-10T04:03:52;6.60;;;4.60;;
38611;SDS011;24368;52.156;20.788;2023-05-10T04:08:53;7.00;;;4.60;;
38611;SDS011;24368;52.156;20.788;2023-05-10T04:13:55;4.90;;;4.20;;
38611;SDS011;24368;52.156;20.788;2023-05-10T04:18:57;5.50;;;4.60;;
38611;SDS011;24368;52.156;20.788;2023-05-10T04:23:58;5.10;;;4.10;;
38611;SDS011;24368;52.156;20.788;2023-05-10T04:28:59;7.50;;;5.30;;
38611;SDS011;24368;52.156;20.788;2023-05-10T04:34:00;5.70;;;5.10;;
38611;SDS011;24368;52.156;20.788;2023-05-10T04:39:02;6.40;;;4.50;;
38611;SDS011;24368;52.156;20.788;2023-05-10T04:44:04;6.60;;;4.30;;
38611;SDS011;24368;52.156;20.788;2023-05-10T04:49:05;4.40;;;3.80;;
38611;SDS011;24368;52.156;20.788;2023-05-10T04:54:06;5.70;;;3.90;;
38611;SDS011;24368;52.156;20.788;2023-05-10T04:59:07;5.00;;;4.00;;
38611;SDS011;24368;52.156;20.788;2023-05-10T05:04:08;5.80;;;3.90;;
38611;SDS011;24368;52.156;20.788;2023-05-10T05:09:09;5.40;;;4.20;;
38611;SDS011;24368;52.156;20.788;2023-05-10T05:14:10;5.40;;;3.20;;
38611;SDS011;24368;52.156;20.788;2023-05-10T05:19:11;3.70;;;3.10;;
38611;SDS011;24368;52.156;20.788;2023-05-10T05:24:13;5.30;;;3.50;;
38611;SDS011;24368;52.156;20.788;2023-05-10T05:29:14;5.50;;;3.40;;
38611;SDS011;24368;52.156;20.788;2023-05-10T05:34:15;4.50;;;3.40;;
38611;SDS011;24368;52.156;20.788;2023-05-10T05:39:16;3.40;;;3.10;;
38611;SDS011;24368;52.156;20.788;2023-05-10T05:44:17;3.30;;;2.70;;
38611;SDS011;24368;52.156;20.788;2023-05-10T05:49:18;3.90;;;2.80;;
38611;SDS011;24368;52.156;20.788;2023-05-10T05:54:19;6.20;;;3.70;;
38611;SDS011;24368;52.156;20.788;2023-05-10T05:59:20;4.70;;;2.90;;
38611;SDS011;24368;52.156;20.788;2023-05-10T06:04:22;3.60;;;3.30;;
38611;SDS011;24368;52.156;20.788;2023-05-10T06:09:23;5.30;;;2.50;;
38611;SDS011;24368;52.156;20.788;2023-05-10T06:14:25;2.70;;;2.50;;
38611;SDS011;24368;52.156;20.788;2023-05-10T06:19:26;3.90;;;3.10;;
38611;SDS011;24368;52.156;20.788;2023-05-10T06:24:27;4.20;;;2.70;;
38611;SDS011;24368;52.156;20.788;2023-05-10T06:29:29;3.30;;;1.80;;
38611;SDS011;24368;52.156;20.788;2023-05-10T06:34:30;2.90;;;2.30;;
38611;SDS011;24368;52.156;20.788;2023-05-10T06:39:32;5.90;;;3.00;;
38611;SDS011;24368;52.156;20.788;2023-05-10T06:44:33;4.00;;;2.00;;
38611;SDS011;24368;52.156;20.788;2023-05-10T06:49:34;7.80;;;1.90;;
38611;SDS011;24368;52.156;20.788;2023-05-10T06:54:36;2.60;;;1.90;;
38611;SDS011;24368;52.156;20.788;2023-05-10T06:59:37;4.40;;;1.90;;
38611;SDS011;24368;52.156;20.788;2023-05-10T07:04:38;5.90;;;1.80;;
38611;SDS011;24368;52.156;20.788;2023-05-10T07:09:39;2.20;;;1.70;;
38611;SDS011;24368;52.156;20.788;2023-05-10T07:14:41;3.70;;;1.40;;
38611;SDS011;24368;52.156;20.788;2023-05-10T07:19:43;2.80;;;1.60;;
38611;SDS011;24368;52.156;20.788;2023-05-10T07:24:44;3.10;;;1.50;;
38611;SDS011;24368;52.156;20.788;2023-05-10T07:29:46;5.70;;;1.70;;
38611;SDS011;24368;52.156;20.788;2023-05-10T07:34:47;3.90;;;1.60;;
38611;SDS011;24368;52.156;20.788;2023-05-10T07:39:48;3.10;;;1.60;;
38611;SDS011;24368;52.156;20.788;2023-05-10T07:44:49;2.40;;;1.50;;
38611;SDS011;24368;52.156;20.788;2023-05-10T07:49:50;1.90;;;1.50;;
38611;SDS011;24368;52.156;20.788;2023-05-10T07:54:51;5.00;;;1.70;;
38611;SDS011;24368;52.156;20.788;2023-05-10T07:59:52;3.50;;;1.50;;
38611;SDS011;24368;52.156;20.788;2023-05-10T08:04:53;1.70;;;1.40;;
38611;SDS011;24368;52.156;20.788;2023-05-10T08:09:54;5.20;;;2.00;;
38611;SDS011;24368;52.156;20.788;2023-05-10T08:14:56;1.30;;;1.00;;
38611;SDS011;24368;52.156;20.788;2023-05-10T08:19:57;2.20;;;1.80;;
38611;SDS011;24368;52.156;20.788;2023-05-10T08:24:58;1.20;;;1.00;;
38611;SDS011;24368;52.156;20.788;2023-05-10T08:29:59;3.50;;;1.60;;
38611;SDS011;24368;52.156;20.788;2023-05-10T08:35:01;2.90;;;1.50;;
38611;SDS011;24368;52.156;20.788;2023-05-10T08:40:03;3.20;;;1.60;;
38611;SDS011;24368;52.156;20.788;2023-05-10T08:45:04;2.00;;;1.20;;
38611;SDS011;24368;52.156;20.788;2023-05-10T08:50:08;4.40;;;1.50;;
38611;SDS011;24368;52.156;20.788;2023-05-10T08:55:11;3.20;;;1.70;;
38611;SDS011;24368;52.156;20.788;2023-05-10T09:00:12;3.10;;;1.40;;
38611;SDS011;24368;52.156;20.788;2023-05-10T09:05:14;1.90;;;1.50;;
38611;SDS011;24368;52.156;20.788;2023-05-10T09:10:16;2.80;;;1.30;;
38611;SDS011;24368;52.156;20.788;2023-05-10T09:15:18;3.60;;;1.20;;
38611;SDS011;24368;52.156;20.788;2023-05-10T09:20:20;2.40;;;1.40;;
38611;SDS011;24368;52.156;20.788;2023-05-10T09:25:21;2.90;;;1.40;;
38611;SDS011;24368;52.156;20.788;2023-05-10T09:30:24;3.60;;;1.50;;
38611;SDS011;24368;52.156;20.788;2023-05-10T09:35:26;4.70;;;1.80;;
38611;SDS011;24368;52.156;20.788;2023-05-10T09:40:30;2.10;;;1.30;;
38611;SDS011;24368;52.156;20.788;2023-05-10T09:45:32;2.50;;;1.70;;
38611;SDS011;24368;52.156;20.788;2023-05-10T09:50:34;2.00;;;1.60;;
38611;SDS011;24368;52.156;20.788;2023-05-10T10:00:37;2.30;;;2.10;;
38611;SDS011;24368;52.156;20.788;2023-05-10T10:05:39;3.50;;;1.30;;
38611;SDS011;24368;52.156;20.788;2023-05-10T10:10:43;1.90;;;1.60;;
38611;SDS011;24368;52.156;20.788;2023-05-10T10:15:47;3.00;;;1.80;;
38611;SDS011;24368;52.156;20.788;2023-05-10T10:20:51;4.20;;;1.70;;
38611;SDS011;24368;52.156;20.788;2023-05-10T10:25:54;4.70;;;1.80;;
38611;SDS011;24368;52.156;20.788;2023-05-10T10:30:56;4.90;;;2.10;;
38611;SDS011;24368;52.156;20.788;2023-05-10T10:36:03;4.60;;;1.70;;
38611;SDS011;24368;52.156;20.788;2023-05-10T10:41:26;5.70;;;2.50;;
38611;SDS011;24368;52.156;20.788;2023-05-10T10:46:32;2.80;;;1.80;;
38611;SDS011;24368;52.156;20.788;2023-05-10T10:51:38;2.00;;;1.70;;
38611;SDS011;24368;52.156;20.788;2023-05-10T10:56:40;4.90;;;2.00;;
38611;SDS011;24368;52.156;20.788;2023-05-10T11:01:41;1.40;;;1.30;;
38611;SDS011;24368;52.156;20.788;2023-05-10T11:06:45;3.10;;;1.90;;
38611;SDS011;24368;52.156;20.788;2023-05-10T11:11:52;3.20;;;1.70;;
38611;SDS011;24368;52.156;20.788;2023-05-10T11:16:59;5.00;;;1.70;;
38611;SDS011;24368;52.156;20.788;2023-05-10T11:27:06;3.30;;;1.70;;
38611;SDS011;24368;52.156;20.788;2023-05-10T11:32:07;4.00;;;1.80;;
38611;SDS011;24368;52.156;20.788;2023-05-10T11:37:09;4.30;;;2.80;;
38611;SDS011;24368;52.156;20.788;2023-05-10T11:42:11;4.80;;;1.80;;
38611;SDS011;24368;52.156;20.788;2023-05-10T11:47:12;2.30;;;2.00;;
38611;SDS011;24368;52.156;20.788;2023-05-10T11:52:14;4.00;;;1.60;;
38611;SDS011;24368;52.156;20.788;2023-05-10T11:57:15;1.80;;;1.50;;
38611;SDS011;24368;52.156;20.788;2023-05-10T12:02:16;4.30;;;1.70;;
38611;SDS011;24368;52.156;20.788;2023-05-10T12:07:18;3.10;;;1.90;;
38611;SDS011;24368;52.156;20.788;2023-05-10T12:12:19;2.40;;;2.20;;
38611;SDS011;24368;52.156;20.788;2023-05-10T12:17:20;4.50;;;2.00;;
38611;SDS011;24368;52.156;20.788;2023-05-10T12:22:21;3.00;;;2.00;;
38611;SDS011;24368;52.156;20.788;2023-05-10T12:27:23;2.30;;;1.60;;
38611;SDS011;24368;52.156;20.788;2023-05-10T12:32:36;3.40;;;1.80;;
38611;SDS011;24368;52.156;20.788;2023-05-10T12:37:39;2.90;;;1.40;;
38611;SDS011;24368;52.156;20.788;2023-05-10T12:42:40;4.20;;;1.70;;
38611;SDS011;24368;52.156;20.788;2023-05-10T12:47:41;4.30;;;2.60;;
38611;SDS011;24368;52.156;20.788;2023-05-10T12:52:42;5.70;;;1.60;;
38611;SDS011;24368;52.156;20.788;2023-05-10T12:57:43;4.20;;;1.30;;
38611;SDS011;24368;52.156;20.788;2023-05-10T13:02:45;2.40;;;1.90;;
38611;SDS011;24368;52.156;20.788;2023-05-10T13:07:46;4.30;;;1.90;;
38611;SDS011;24368;52.156;20.788;2023-05-10T13:12:47;2.10;;;1.30;;
38611;SDS011;24368;52.156;20.788;2023-05-10T13:17:48;4.70;;;1.70;;
38611;SDS011;24368;52.156;20.788;2023-05-10T13:22:58;1.40;;;1.30;;
38611;SDS011;24368;52.156;20.788;2023-05-10T13:27:59;3.00;;;1.60;;
38611;SDS011;24368;52.156;20.788;2023-05-10T13:33:00;2.50;;;1.40;;
38611;SDS011;24368;52.156;20.788;2023-05-10T13:38:02;3.90;;;2.10;;
38611;SDS011;24368;52.156;20.788;2023-05-10T13:43:03;4.20;;;3.10;;
38611;SDS011;24368;52.156;20.788;2023-05-10T13:48:04;2.70;;;2.00;;
38611;SDS011;24368;52.156;20.788;2023-05-10T13:53:06;4.30;;;2.20;;
38611;SDS011;24368;52.156;20.788;2023-05-10T13:58:07;3.50;;;1.60;;
38611;SDS011;24368;52.156;20.788;2023-05-10T14:03:08;2.90;;;1.20;;
38611;SDS011;24368;52.156;20.788;2023-05-10T14:08:11;4.30;;;1.50;;
38611;SDS011;24368;52.156;20.788;2023-05-10T14:13:13;1.90;;;1.50;;
38611;SDS011;24368;52.156;20.788;2023-05-10T14:18:15;3.20;;;1.20;;
38611;SDS011;24368;52.156;20.788;2023-05-10T14:23:16;2.40;;;2.20;;
38611;SDS011;24368;52.156;20.788;2023-05-10T14:28:18;4.90;;;4.40;;
38611;SDS011;24368;52.156;20.788;2023-05-10T14:33:20;2.70;;;1.60;;
38611;SDS011;24368;52.156;20.788;2023-05-10T14:38:22;4.70;;;3.60;;
38611;SDS011;24368;52.156;20.788;2023-05-10T14:43:23;3.00;;;1.70;;
38611;SDS011;24368;52.156;20.788;2023-05-10T14:48:24;1.60;;;1.50;;
38611;SDS011;24368;52.156;20.788;2023-05-10T14:53:25;2.00;;;1.50;;
38611;SDS011;24368;52.156;20.788;2023-05-10T14:58:26;2.70;;;1.30;;
38611;SDS011;24368;52.156;20.788;2023-05-10T15:03:28;4.50;;;1.60;;
38611;SDS011;24368;52.156;20.788;2023-05-10T15:08:29;2.20;;;1.60;;
38611;SDS011;24368;52.156;20.788;2023-05-10T15:13:30;2.00;;;1.60;;
38611;SDS011;24368;52.156;20.788;2023-05-10T15:18:31;1.50;;;1.40;;
38611;SDS011;24368;52.156;20.788;2023-05-10T15:23:32;2.80;;;2.00;;
38611;SDS011;24368;52.156;20.788;2023-05-10T15:28:33;3.30;;;1.50;;
38611;SDS011;24368;52.156;20.788;2023-05-10T15:33:35;2.50;;;1.70;;
38611;SDS011;24368;52.156;20.788;2023-05-10T15:38:37;7.30;;;1.60;;
38611;SDS011;24368;52.156;20.788;2023-05-10T15:43:38;2.90;;;2.00;;
38611;SDS011;24368;52.156;20.788;2023-05-10T15:48:40;5.10;;;2.00;;
38611;SDS011;24368;52.156;20.788;2023-05-10T15:53:41;2.90;;;1.80;;
38611;SDS011;24368;52.156;20.788;2023-05-10T15:58:42;2.60;;;1.80;;
38611;SDS011;24368;52.156;20.788;2023-05-10T16:03:43;5.00;;;1.90;;
38611;SDS011;24368;52.156;20.788;2023-05-10T16:08:44;2.50;;;2.10;;
38611;SDS011;24368;52.156;20.788;2023-05-10T16:13:45;3.30;;;1.90;;
38611;SDS011;24368;52.156;20.788;2023-05-10T16:18:46;2.20;;;2.00;;
38611;SDS011;24368;52.156;20.788;2023-05-10T16:23:47;4.80;;;4.30;;
38611;SDS011;24368;52.156;20.788;2023-05-10T16:28:49;2.30;;;1.70;;
38611;SDS011;24368;52.156;20.788;2023-05-10T16:33:50;4.10;;;1.80;;
38611;SDS011;24368;52.156;20.788;2023-05-10T16:38:51;2.10;;;1.60;;
38611;SDS011;24368;52.156;20.788;2023-05-10T16:43:53;3.70;;;3.40;;
38611;SDS011;24368;52.156;20.788;2023-05-10T16:48:54;22.60;;;4.40;;
38611;SDS011;24368;52.156;20.788;2023-05-10T16:53:55;1.70;;;1.40;;
38611;SDS011;24368;52.156;20.788;2023-05-10T16:58:56;1.60;;;1.40;;
38611;SDS011;24368;52.156;20.788;2023-05-10T17:03:58;2.10;;;1.30;;
38611;SDS011;24368;52.156;20.788;2023-05-10T17:08:59;2.30;;;1.20;;
38611;SDS011;24368;52.156;20.788;2023-05-10T17:14:00;2.00;;;1.50;;
38611;SDS011;24368;52.156;20.788;2023-05-10T17:19:01;5.50;;;3.30;;
38611;SDS011;24368;52.156;20.788;2023-05-10T17:24:03;4.30;;;2.60;;
38611;SDS011;24368;52.156;20.788;2023-05-10T17:29:04;1.50;;;1.30;;
38611;SDS011;24368;52.156;20.788;2023-05-10T17:34:05;3.00;;;1.50;;
38611;SDS011;24368;52.156;20.788;2023-05-10T17:39:06;1.80;;;1.30;;
38611;SDS011;24368;52.156;20.788;2023-05-10T17:44:08;4.80;;;1.50;;
38611;SDS011;24368;52.156;20.788;2023-05-10T17:49:09;2.40;;;1.30;;
38611;SDS011;24368;52.156;20.788;2023-05-10T17:54:10;3.10;;;1.70;;
38611;SDS011;24368;52.156;20.788;2023-05-10T17:59:11;2.20;;;2.00;;
38611;SDS011;24368;52.156;20.788;2023-05-10T18:04:12;2.00;;;1.80;;
38611;SDS011;24368;52.156;20.788;2023-05-10T18:09:13;3.40;;;1.40;;
38611;SDS011;24368;52.156;20.788;2023-05-10T18:14:15;2.50;;;1.40;;
38611;SDS011;24368;52.156;20.788;2023-05-10T18:19:16;1.70;;;1.60;;
38611;SDS011;24368;52.156;20.788;2023-05-10T18:24:18;4.40;;;1.90;;
38611;SDS011;24368;52.156;20.788;2023-05-10T18:29:21;3.40;;;1.60;;
38611;SDS011;24368;52.156;20.788;2023-05-10T18:34:23;2.30;;;1.80;;
38611;SDS011;24368;52.156;20.788;2023-05-10T18:39:24;2.60;;;2.10;;
38611;SDS011;24368;52.156;20.788;2023-05-10T18:44:25;2.20;;;2.00;;
38611;SDS011;24368;52.156;20.788;2023-05-10T18:49:28;2.00;;;1.80;;
38611;SDS011;24368;52.156;20.788;2023-05-10T18:54:29;3.40;;;2.00;;
38611;SDS011;24368;52.156;20.788;2023-05-10T18:59:30;2.70;;;1.80;;
38611;SDS011;24368;52.156;20.788;2023-05-10T19:04:32;4.00;;;2.60;;
38611;SDS011;24368;52.156;20.788;2023-05-10T19:09:33;3.60;;;2.40;;
38611;SDS011;24368;52.156;20.788;2023-05-10T19:14:34;3.50;;;2.00;;
38611;SDS011;24368;52.156;20.788;2023-05-10T19:19:35;4.30;;;2.50;;
38611;SDS011;24368;52.156;20.788;2023-05-10T19:24:36;3.10;;;2.40;;
38611;SDS011;24368;52.156;20.788;2023-05-10T19:29:38;2.30;;;2.00;;
38611;SDS011;24368;52.156;20.788;2023-05-10T19:34:39;5.60;;;2.40;;
38611;SDS011;24368;52.156;20.788;2023-05-10T19:39:40;4.70;;;4.00;;
38611;SDS011;24368;52.156;20.788;2023-05-10T19:44:41;3.00;;;2.70;;
38611;SDS011;24368;52.156;20.788;2023-05-10T19:49:43;2.80;;;2.30;;
38611;SDS011;24368;52.156;20.788;2023-05-10T19:54:44;5.20;;;2.40;;
38611;SDS011;24368;52.156;20.788;2023-05-10T19:59:45;3.20;;;1.90;;
38611;SDS011;24368;52.156;20.788;2023-05-10T20:04:46;4.70;;;2.40;;
38611;SDS011;24368;52.156;20.788;2023-05-10T20:09:47;4.10;;;3.00;;
38611;SDS011;24368;52.156;20.788;2023-05-10T20:14:49;3.40;;;2.50;;
38611;SDS011;24368;52.156;20.788;2023-05-10T20:19:50;4.50;;;2.90;;
38611;SDS011;24368;52.156;20.788;2023-05-10T20:24:51;3.20;;;2.50;;
38611;SDS011;24368;52.156;20.788;2023-05-10T20:29:52;3.40;;;2.70;;
38611;SDS011;24368;52.156;20.788;2023-05-10T20:34:53;5.30;;;2.60;;
38611;SDS011;24368;52.156;20.788;2023-05-10T20:39:54;3.20;;;2.90;;
38611;SDS011;24368;52.156;20.788;2023-05-10T20:44:56;4.60;;;2.70;;
38611;SDS011;24368;52.156;20.788;2023-05-10T20:49:57;5.30;;;3.30;;
38611;SDS011;24368;52.156;20.788;2023-05-10T20:54:58;3.40;;;3.10;;
38611;SDS011;24368;52.156;20.788;2023-05-10T21:00:00;4.60;;;2.80;;
38611;SDS011;24368;52.156;20.788;2023-05-10T21:05:01;2.90;;;2.60;;
38611;SDS011;24368;52.156;20.788;2023-05-10T21:10:02;6.00;;;5.40;;
38611;SDS011;24368;52.156;20.788;2023-05-10T21:15:04;5.40;;;3.10;;
38611;SDS011;24368;52.156;20.788;2023-05-10T21:20:06;3.30;;;3.00;;
38611;SDS011;24368;52.156;20.788;2023-05-10T21:25:07;4.10;;;2.60;;
38611;SDS011;24368;52.156;20.788;2023-05-10T21:30:09;4.10;;;2.80;;
38611;SDS011;24368;52.156;20.788;2023-05-10T21:35:11;5.40;;;3.00;;
38611;SDS011;24368;52.156;20.788;2023-05-10T21:40:12;3.00;;;2.50;;
38611;SDS011;24368;52.156;20.788;2023-05-10T21:45:16;3.30;;;3.00;;
38611;SDS011;24368;52.156;20.788;2023-05-10T21:50:19;3.20;;;2.90;;
38611;SDS011;24368;52.156;20.788;2023-05-10T21:55:20;4.50;;;2.90;;
38611;SDS011;24368;52.156;20.788;2023-05-10T22:00:22;3.90;;;2.60;;
38611;SDS011;24368;52.156;20.788;2023-05-10T22:05:23;4.30;;;3.00;;
38611;SDS011;24368;52.156;20.788;2023-05-10T22:10:24;3.60;;;2.90;;
38611;SDS011;24368;52.156;20.788;2023-05-10T22:15:25;3.10;;;2.70;;
38611;SDS011;24368;52.156;20.788;2023-05-10T22:20:27;3.00;;;2.70;;
38611;SDS011;24368;52.156;20.788;2023-05-10T22:25:28;3.60;;;2.40;;
38611;SDS011;24368;52.156;20.788;2023-05-10T22:30:30;3.50;;;2.80;;
38611;SDS011;24368;52.156;20.788;2023-05-10T22:35:31;3.30;;;2.60;;
38611;SDS011;24368;52.156;20.788;2023-05-10T22:40:32;5.90;;;2.80;;
38611;SDS011;24368;52.156;20.788;2023-05-10T22:45:33;3.50;;;2.50;;
38611;SDS011;24368;52.156;20.788;2023-05-10T22:50:34;3.70;;;2.90;;
38611;SDS011;24368;52.156;20.788;2023-05-10T22:55:36;3.20;;;2.50;;
38611;SDS011;24368;52.156;20.788;2023-05-10T23:00:38;3.50;;;2.40;;
38611;SDS011;24368;52.156;20.788;2023-05-10T23:05:39;4.20;;;2.50;;
38611;SDS011;24368;52.156;20.788;2023-05-10T23:10:40;3.50;;;2.40;;
38611;SDS011;24368;52.156;20.788;2023-05-10T23:15:41;2.60;;;2.40;;
38611;SDS011;24368;52.156;20.788;2023-05-10T23:20:43;3.10;;;2.40;;
38611;SDS011;24368;52.156;20.788;2023-05-10T23:25:44;3.20;;;2.50;;
38611;SDS011;24368;52.156;20.788;2023-05-10T23:30:45;4.40;;;4.00;;
38611;SDS011;24368;52.156;20.788;2023-05-10T23:35:46;3.80;;;3.20;;
38611;SDS011;24368;52.156;20.788;2023-05-10T23:40:47;4.00;;;2.70;;
38611;SDS011;24368;52.156;20.788;2023-05-10T23:45:56;4.10;;;2.80;;
38611;SDS011;24368;52.156;20.788;2023-05-10T23:50:57;2.60;;;2.40;;
38611;SDS011;24368;52.156;20.788;2023-05-10T23:55:59;3.00;;;2.70;;
